Date,TemperatureHighF,TemperatureAvgF,TemperatureLowF,DewpointHighF,DewpointAvgF,DewpointLowF,HumidityHigh,HumidityAvg,HumidityLow,PressureMaxIn,PressureMinIn,WindSpeedMaxMPH,WindSpeedAvgMPH,GustSpeedMaxMPH,PrecipitationSumIn
2013-4-1,53.0,39.5,29.0,33.0,20.2,10.0,93,49,26,0.00,40.00,20,5,33,0.00
2013-4-2,48.0,35.2,29.0,27.0,19.5,10.0,92,56,28,0.00,40.00,13,5,22,0.00
2013-4-3,47.0,35.5,27.0,28.0,24.2,18.0,97,67,39,0.00,40.00,13,6,25,0.00
2013-4-4,54.0,41.7,28.0,24.0,19.2,14.0,69,43,24,0.00,40.00,7,4,19,0.00
2013-4-5,53.0,42.6,32.0,32.0,20.7,12.0,97,44,29,0.00,40.00,21,8,42,0.00
2013-4-6,51.0,38.4,29.0,34.0,25.5,13.0,97,67,25,0.00,40.00,16,7,32,0.10
2013-4-7,46.0,37.0,30.0,31.0,26.2,19.0,97,68,38,0.00,40.00,19,8,40,0.04
2013-4-8,47.0,35.5,29.0,32.0,24.1,17.0,95,66,32,0.00,40.00,34,12,52,0.03
2013-4-9,36.0,28.4,11.0,30.0,25.6,7.0,97,89,78,0.00,40.00,18,6,36,0.47
2013-4-10,27.0,17.7,7.0,16.0,11.0,4.0,90,76,61,0.00,40.00,13,8,26,0.09
2013-4-11,39.0,28.5,15.0,30.0,20.6,8.0,83,73,52,0.00,40.00,15,8,24,0.01
2013-4-12,46.0,33.0,22.0,24.0,19.3,11.0,90,61,33,0.00,40.00,12,6,23,0.01
2013-4-13,52.0,38.1,25.0,22.0,17.2,13.0,66,45,26,0.00,40.00,42,11,68,0.00
2013-4-14,40.0,31.8,24.0,33.0,25.5,16.0,97,80,50,0.00,40.00,26,11,56,0.14
2013-4-15,44.0,35.7,29.0,32.0,27.3,20.0,97,73,48,0.00,40.00,25,9,43,0.14
2013-4-16,51.0,40.7,30.0,27.0,17.0,6.0,87,42,18,0.00,40.00,45,26,66,0.00
2013-4-17,35.0,26.0,14.0,27.0,19.2,8.0,93,76,52,0.00,40.00,29,13,42,0.02
2013-4-18,23.0,15.7,8.0,14.0,8.0,4.0,86,71,55,0.00,40.00,15,11,31,0.01
2013-4-19,39.0,26.6,13.0,16.0,10.4,3.0,72,51,36,0.00,40.00,12,7,25,0.00
2013-4-20,42.0,31.8,24.0,29.0,24.7,18.0,97,77,50,0.00,40.00,16,6,26,0.03
2013-4-21,50.0,37.2,25.0,28.0,21.5,10.0,97,60,24,0.00,40.00,14,7,27,0.04
2013-4-22,52.0,38.7,30.0,37.0,25.5,13.0,97,65,27,0.00,40.00,20,10,36,0.10
2013-4-23,34.0,28.5,23.0,25.0,16.5,3.0,95,64,30,0.00,40.00,19,12,33,0.02
2013-4-24,40.0,29.2,19.0,13.0,8.0,3.0,67,42,28,0.00,40.00,14,5,30,0.01
2013-4-25,56.0,37.4,25.0,25.0,15.9,5.0,58,43,22,0.00,40.00,22,7,36,0.00
2013-4-26,56.0,43.1,31.0,23.0,16.8,11.0,66,38,18,0.00,40.00,11,5,22,0.00
2013-4-27,58.0,44.6,30.0,23.0,13.5,8.0,58,31,16,0.00,40.00,13,5,25,0.00
2013-4-28,61.0,46.8,30.0,20.0,13.5,8.0,47,27,15,0.00,40.00,14,6,25,0.00
2013-4-29,64.0,50.9,37.0,23.0,18.3,16.0,44,29,17,0.00,40.00,17,10,32,0.00
2013-4-30,62.0,56.0,46.0,20.0,14.3,10.0,29,19,15,0.00,40.00,32,20,52,0.00